aviador You're here:

RJBB Decoded Metar

KANSAI INTL in JAPAN
Report Time2018-07-22 14:00:00
UTC Time2018-07-22 14:35:48
Flight Rules vfr VFR
Wind240° at 08 kt
W.Decomp.*RWY 24: 7.9 kt HW 1.0 kt RCW
W.Rank240° ranks 11
Current wind is below 240° avg. (8.2)
Visibility9999 m
Phenomena:N/A
Clouds:N/A
Expected CloudBase > 1,200 ft AGL from Temp-Dew spread
CeilingNone
Temp28°C (ISA +13)
Dew Point25°C (84% RH)
Heat Index32.7°C
QNH1009 hPa
Density Alt2,077 ft
Elevation26 ft
Report Wrong Elevation
Raw Report
RJBB 221400Z AUTO 24008KT 9999 NSC 28/25 Q1009 NOSIG=

Extra information for RJBB:More info

Metar Taf Metar & Taf Last 4 Metars F.Rules Stats Wind Profile Meteogram Temp Stats Airport Information Weather charts Add Link Nearby VenuesMetar ALERT Operation Metar Decoded Social comments